createdAt,value
2018-06-13T18:15:37.312Z,4.10
2018-06-13T18:39:30.002Z,3.40
2018-06-13T19:58:08.365Z,4.30
2018-06-13T20:00:53.265Z,5.35
2018-06-13T20:06:44.050Z,4.73
2018-06-13T20:10:20.924Z,4.33
2018-06-13T20:13:01.545Z,4.83
2018-06-13T20:18:34.365Z,4.63
2018-06-13T20:21:13.243Z,4.90
2018-06-13T20:23:50.053Z,4.30
2018-06-13T20:28:32.032Z,5.70
2018-06-13T20:31:14.760Z,7.20
2018-06-13T20:33:55.837Z,5.40
2018-06-13T20:36:37.790Z,5.83
2018-06-13T20:39:10.246Z,5.40
2018-06-13T20:41:43.395Z,6.20
2018-06-13T20:44:18.496Z,5.70
2018-06-13T20:51:16.477Z,5.30
2018-06-13T20:54:58.134Z,5.20
2018-06-13T20:57:28.156Z,6.00
2018-06-13T20:59:59.069Z,5.00
2018-06-13T21:02:33.575Z,5.10
2018-06-13T21:05:06.555Z,6.83
2018-06-13T21:10:37.935Z,6.47
2018-06-13T21:13:11.806Z,5.60
2018-06-13T21:16:21.038Z,5.93
2018-06-13T21:21:53.683Z,7.00
2018-06-13T21:24:22.298Z,6.67
2018-06-13T21:26:50.872Z,6.65
2018-06-13T21:29:22.847Z,7.40
2018-06-13T21:31:51.691Z,7.40
2018-06-13T21:46:35.857Z,7.80
2018-06-13T21:49:33.481Z,7.87
2018-06-13T21:52:04.333Z,8.03
2018-06-13T21:57:40.800Z,7.80
2018-06-13T22:00:14.720Z,7.70
2018-06-13T22:05:04.710Z,7.80
2018-06-13T22:10:36.261Z,7.60
2018-06-13T22:16:16.959Z,8.20
2018-06-13T22:18:49.152Z,8.50
2018-06-13T22:21:24.740Z,8.30
2018-06-13T22:23:56.400Z,7.80
2018-06-13T22:26:27.970Z,7.40
2018-06-13T22:29:06.282Z,8.10
2018-06-13T22:31:40.967Z,8.03
2018-06-13T22:34:16.252Z,9.13
2018-06-13T22:37:15.586Z,8.20
2018-06-13T22:45:16.437Z,9.00
2018-06-13T22:47:59.383Z,7.13
2018-06-13T22:50:38.502Z,7.90
2018-06-13T23:00:53.428Z,8.80
2018-06-13T23:03:43.299Z,9.25
2018-06-13T23:06:15.633Z,8.63
2018-06-13T23:09:21.824Z,8.60
2018-06-13T23:11:51.492Z,9.20
2018-06-13T23:14:23.336Z,9.58
2018-06-13T23:16:56.158Z,9.63
2018-06-13T23:23:23.291Z,9.80
2018-06-13T23:28:56.362Z,8.60
2018-06-13T23:31:26.852Z,8.33
2018-06-13T23:33:57.354Z,9.17
2018-06-13T23:37:38.822Z,9.13
2018-06-13T23:40:24.906Z,8.97
2018-06-13T23:42:57.484Z,8.50
2018-06-13T23:45:31.549Z,8.60
2018-06-13T23:48:07.680Z,8.17
2018-06-13T23:50:40.612Z,9.30
2018-06-13T23:53:19.456Z,8.90
2018-06-13T23:55:53.001Z,8.37
2018-06-13T23:58:27.603Z,9.33
